createdAt,value
2018-05-25T00:01:19.950Z,20.5
2018-05-25T00:06:17.027Z,20.4
2018-05-25T00:11:14.243Z,20.4
2018-05-25T00:16:11.103Z,20.3
2018-05-25T00:21:08.086Z,20.3
2018-05-25T00:26:05.463Z,20.4
2018-05-25T00:31:02.452Z,20.2
2018-05-25T00:35:59.787Z,20.1
2018-05-25T00:40:56.870Z,20.1
2018-05-25T00:45:54.035Z,20.2
2018-05-25T00:50:51.061Z,20.1
2018-05-25T00:55:48.045Z,20.1
2018-05-25T01:00:45.148Z,20.1
2018-05-25T01:05:42.081Z,20
2018-05-25T01:10:39.367Z,19.9
2018-05-25T01:15:36.480Z,19.9
2018-05-25T01:20:33.679Z,19.8
2018-05-25T01:25:30.162Z,19.9
2018-05-25T01:30:27.145Z,19.8
2018-05-25T01:35:24.243Z,19.7
2018-05-25T01:40:21.344Z,19.7
2018-05-25T01:45:18.373Z,19.6
2018-05-25T01:50:15.427Z,19.6
2018-05-25T01:55:12.727Z,19.7
2018-05-25T02:00:09.552Z,19.5
2018-05-25T02:05:06.720Z,19.5
2018-05-25T02:10:03.807Z,19.5
2018-05-25T02:15:00.878Z,19.5
2018-05-25T02:19:57.672Z,19.4
2018-05-25T02:24:54.709Z,19.3
2018-05-25T02:29:51.196Z,19.3
2018-05-25T02:34:48.249Z,19.4
2018-05-25T02:39:45.079Z,19.4
2018-05-25T02:44:42.042Z,19.2
2018-05-25T02:49:39.104Z,19.1
2018-05-25T02:54:36.101Z,19.1
2018-05-25T02:59:33.414Z,18.9
2018-05-25T03:04:30.449Z,19
2018-05-25T03:09:27.581Z,19.1
2018-05-25T03:14:24.581Z,19
2018-05-25T03:19:21.648Z,18.9
2018-05-25T03:24:18.800Z,19
2018-05-25T03:29:15.874Z,19
2018-05-25T03:34:12.199Z,18.8
2018-05-25T03:39:09.210Z,18.8
2018-05-25T03:44:06.361Z,18.9
2018-05-25T03:49:03.401Z,18.7
2018-05-25T03:54:00.457Z,18.8
2018-05-25T03:58:57.595Z,18.7
2018-05-25T04:03:54.369Z,18.7
2018-05-25T04:08:51.368Z,18.6
2018-05-25T04:13:48.445Z,18.6
2018-05-25T04:18:45.810Z,18.8
2018-05-25T04:23:42.908Z,18.7
2018-05-25T04:28:40.044Z,18.6
2018-05-25T04:33:37.275Z,18.5
2018-05-25T04:38:34.671Z,18.6
2018-05-25T04:43:31.745Z,18.5
2018-05-25T04:48:28.615Z,18.5
2018-05-25T04:53:25.659Z,18.6
2018-05-25T04:58:23.116Z,18.6
2018-05-25T05:03:20.002Z,18.5
2018-05-25T05:08:17.435Z,18.5
2018-05-25T05:13:14.899Z,18.4
2018-05-25T05:18:12.060Z,18.4
2018-05-25T05:23:09.330Z,18.5
2018-05-25T05:28:06.670Z,18.5
2018-05-25T05:33:03.562Z,18.4
2018-05-25T05:38:00.707Z,18.5
2018-05-25T05:42:57.659Z,18.3
2018-05-25T05:47:54.796Z,18.5
2018-05-25T05:52:52.233Z,18.5
2018-05-25T05:57:49.453Z,18.5
2018-05-25T06:02:46.709Z,18.4
2018-05-25T06:07:44.123Z,18.5
2018-05-25T06:12:41.280Z,18.5
2018-05-25T06:17:38.559Z,18.6
2018-05-25T06:22:35.782Z,18.6
2018-05-25T06:27:32.817Z,18.5
2018-05-25T06:32:30.008Z,18.5
2018-05-25T06:37:26.884Z,18.5
2018-05-25T06:42:23.875Z,18.7
2018-05-25T06:47:21.149Z,18.7
2018-05-25T06:52:18.313Z,18.7
2018-05-25T06:57:14.779Z,18.6
2018-05-25T07:02:11.923Z,18.6
2018-05-25T07:07:09.283Z,18.8
2018-05-25T07:12:06.394Z,18.7
2018-05-25T07:17:03.742Z,18.9
2018-05-25T07:22:01.038Z,18.8
2018-05-25T07:26:58.256Z,18.9
2018-05-25T07:31:55.528Z,18.9
2018-05-25T07:36:52.779Z,18.9
2018-05-25T07:41:49.679Z,18.9
2018-05-25T07:46:46.709Z,19.1
2018-05-25T07:51:43.901Z,19
2018-05-25T07:56:40.950Z,19
2018-05-25T08:01:38.043Z,19.1
2018-05-25T08:06:35.244Z,19.1
2018-05-25T08:11:32.399Z,19.2
2018-05-25T08:16:29.694Z,19.2
2018-05-25T08:21:26.731Z,19.3
2018-05-25T08:26:24.069Z,19.5
2018-05-25T08:31:21.120Z,19.5
2018-05-25T08:36:18.215Z,19.4
2018-05-25T08:41:15.422Z,19.5
2018-05-25T08:46:12.496Z,19.5
2018-05-25T08:51:09.747Z,19.6
2018-05-25T08:56:07.062Z,19.8
2018-05-25T09:01:04.188Z,19.7
2018-05-25T09:06:01.569Z,19.9
2018-05-25T09:10:58.633Z,19.8
2018-05-25T09:15:55.752Z,19.8
2018-05-25T09:20:52.998Z,19.9
2018-05-25T09:25:49.966Z,20
2018-05-25T09:30:47.259Z,20.1
2018-05-25T09:35:44.624Z,20.2
2018-05-25T09:40:41.752Z,20.3
2018-05-25T09:45:39.029Z,20.3
2018-05-25T09:50:36.312Z,20.3
2018-05-25T09:55:33.162Z,20.3
2018-05-25T10:00:30.208Z,20.5
2018-05-25T10:05:27.320Z,20.4
2018-05-25T10:10:24.633Z,20.5
2018-05-25T10:15:21.651Z,20.7
2018-05-25T10:20:18.831Z,20.7
2018-05-25T10:25:16.171Z,20.8
2018-05-25T10:30:13.377Z,20.8
2018-05-25T10:35:10.637Z,20.9
2018-05-25T10:40:08.075Z,21
2018-05-25T10:45:05.360Z,21
2018-05-25T10:50:02.539Z,21.1
2018-05-25T10:54:59.855Z,21.2
2018-05-25T10:59:57.312Z,21
2018-05-25T11:04:54.829Z,21.3
2018-05-25T11:09:52.061Z,21.4
2018-05-25T11:14:49.497Z,21.3
2018-05-25T11:19:46.514Z,21.5
2018-05-25T11:24:44.027Z,21.3
2018-05-25T11:29:41.412Z,21.6
2018-05-25T11:34:38.802Z,21.6
2018-05-25T11:39:36.057Z,21.7
2018-05-25T11:44:33.353Z,21.8
2018-05-25T11:49:30.761Z,21.7
2018-05-25T11:54:28.087Z,21.8
2018-05-25T11:59:25.658Z,22
2018-05-25T12:04:23.174Z,22
2018-05-25T12:09:20.624Z,22.1
2018-05-25T12:14:18.151Z,22
2018-05-25T12:19:15.531Z,22
2018-05-25T12:24:12.775Z,22.1
2018-05-25T12:29:10.331Z,22.2
2018-05-25T12:34:07.449Z,22.3
2018-05-25T12:39:05.035Z,22.3
2018-05-25T12:44:02.711Z,22.4
2018-05-25T12:49:00.035Z,22.4
2018-05-25T12:53:57.221Z,22.3
2018-05-25T12:58:54.579Z,22.4
2018-05-25T13:03:51.902Z,22.5
2018-05-25T13:08:49.203Z,22.5
2018-05-25T13:13:46.670Z,22.5
2018-05-25T13:18:44.009Z,22.5
2018-05-25T13:23:41.223Z,22.4
2018-05-25T13:28:38.286Z,22.5
2018-05-25T13:33:35.710Z,22.6
2018-05-25T13:38:32.822Z,22.6
2018-05-25T13:43:30.324Z,22.6
2018-05-25T13:48:27.529Z,22.5
2018-05-25T13:53:24.930Z,22.5
2018-05-25T13:58:22.060Z,22.5
2018-05-25T14:03:19.601Z,22.5
2018-05-25T14:08:16.952Z,22.6
2018-05-25T14:13:14.413Z,22.7
2018-05-25T14:18:11.548Z,22.6
2018-05-25T14:23:09.075Z,22.7
2018-05-25T14:28:06.391Z,22.7
2018-05-25T14:33:03.525Z,22.7
2018-05-25T14:38:00.940Z,22.7
2018-05-25T14:42:58.363Z,22.7
2018-05-25T14:47:55.333Z,22.7
2018-05-25T14:52:52.506Z,22.8
2018-05-25T14:57:49.681Z,22.8
2018-05-25T15:02:46.987Z,22.9
2018-05-25T15:07:44.320Z,22.9
2018-05-25T15:12:41.104Z,22.8
2018-05-25T15:17:38.066Z,23
2018-05-25T15:22:35.455Z,22.9
2018-05-25T15:27:32.646Z,23
2018-05-25T15:32:30.048Z,23
2018-05-25T15:37:27.048Z,23
2018-05-25T15:42:24.116Z,23.2
2018-05-25T15:47:21.572Z,23.1
2018-05-25T15:52:19.118Z,23.2
2018-05-25T15:57:15.947Z,23.3
2018-05-25T16:02:13.339Z,23.2
2018-05-25T16:07:10.725Z,23.3
2018-05-25T16:12:08.146Z,23.3
2018-05-25T16:17:05.273Z,23.4
2018-05-25T16:22:02.799Z,23.3
2018-05-25T16:27:00.106Z,23.5
2018-05-25T16:31:57.144Z,23.3
2018-05-25T16:36:54.416Z,23.4
2018-05-25T16:41:51.786Z,23.5
2018-05-25T16:46:48.839Z,23.5
2018-05-25T16:51:46.264Z,23.5
2018-05-25T16:56:44.263Z,23.4
2018-05-25T17:01:41.675Z,23.6
2018-05-25T17:06:38.343Z,23.6
2018-05-25T17:11:35.718Z,23.6
2018-05-25T17:16:33.026Z,23.5
2018-05-25T17:21:30.134Z,23.6
2018-05-25T17:26:27.389Z,23.6
2018-05-25T17:31:25.087Z,23.5
2018-05-25T17:36:22.278Z,23.6
2018-05-25T17:41:19.646Z,23.6
2018-05-25T17:46:17.148Z,23.5
2018-05-25T17:51:14.484Z,23.6
2018-05-25T17:56:11.940Z,23.5
2018-05-25T18:01:09.128Z,23.5
2018-05-25T18:06:06.263Z,23.5
2018-05-25T18:11:03.576Z,23.5
2018-05-25T18:16:00.902Z,23.4
2018-05-25T18:20:58.206Z,23.6
2018-05-25T18:25:55.280Z,23.4
2018-05-25T18:30:52.586Z,23.5
2018-05-25T18:35:50.068Z,23.4
2018-05-25T18:40:47.151Z,23.4
2018-05-25T18:45:44.518Z,23.4
2018-05-25T18:50:41.766Z,23.4
2018-05-25T18:55:39.228Z,23.3
2018-05-25T19:00:36.486Z,23.4
2018-05-25T19:05:33.900Z,23.2
2018-05-25T19:10:30.950Z,23.2
2018-05-25T19:15:28.096Z,23.3
2018-05-25T19:20:25.634Z,23.3
2018-05-25T19:25:22.841Z,23.2
2018-05-25T19:30:20.186Z,23.1
2018-05-25T19:35:17.866Z,23.2
2018-05-25T19:40:15.320Z,23.1
2018-05-25T19:45:12.711Z,23
2018-05-25T19:50:10.234Z,23
2018-05-25T19:55:07.474Z,23.1
2018-05-25T20:00:04.506Z,23
2018-05-25T20:05:01.769Z,22.9
2018-05-25T20:09:59.122Z,22.9
2018-05-25T20:14:56.988Z,22.9
2018-05-25T20:19:54.201Z,22.9
2018-05-25T20:24:51.496Z,22.7
2018-05-25T20:29:48.509Z,22.8
2018-05-25T20:34:45.621Z,22.8
2018-05-25T20:39:43.375Z,22.8
2018-05-25T20:44:40.453Z,22.7
2018-05-25T20:49:37.642Z,22.5
2018-05-25T20:54:34.841Z,22.5
2018-05-25T20:59:32.096Z,22.6
2018-05-25T21:04:29.601Z,22.5
2018-05-25T21:09:27.052Z,22.5
2018-05-25T21:14:23.769Z,22.5
2018-05-25T21:19:21.069Z,22.5
2018-05-25T21:24:18.460Z,22.3
2018-05-25T21:29:15.669Z,22.2
2018-05-25T21:34:13.025Z,22.3
2018-05-25T21:39:10.344Z,22.2
2018-05-25T21:44:07.966Z,22.2
2018-05-25T21:49:05.147Z,22.1
2018-05-25T21:54:02.643Z,22.2
2018-05-25T21:58:59.827Z,22.1
2018-05-25T22:03:57.178Z,22.1
2018-05-25T22:08:54.544Z,22.1
2018-05-25T22:13:51.757Z,21.9
2018-05-25T22:18:49.049Z,22
2018-05-25T22:23:47.406Z,21.8
2018-05-25T22:28:44.367Z,21.8
2018-05-25T22:33:41.539Z,21.9
2018-05-25T22:38:38.452Z,21.6
2018-05-25T22:43:35.632Z,21.8
2018-05-25T22:48:32.741Z,21.7
2018-05-25T22:53:30.014Z,21.7
2018-05-25T22:58:27.305Z,21.6
2018-05-25T23:03:24.350Z,21.5
2018-05-25T23:08:21.444Z,21.4
2018-05-25T23:13:18.718Z,21.5
2018-05-25T23:18:15.659Z,21.4
2018-05-25T23:23:13.070Z,21.5
2018-05-25T23:28:10.202Z,21.3
2018-05-25T23:33:07.471Z,21.4
2018-05-25T23:38:04.845Z,21.4
2018-05-25T23:43:02.097Z,21.3
2018-05-25T23:47:58.871Z,21.1
2018-05-25T23:52:56.138Z,21.2
2018-05-25T23:57:53.435Z,21.2
